Time;durP1;ratioP1;P1;durP2;ratioP2;P2;SDS_P1;SDS_P2;PMS_P1;PMS_P2;Temp;Humidity;BMP_temperature;BMP_pressure;BME280_temperature;BME280_humidity;BME280_pressure;Samples;Min_cycle;Max_cycle;Signal;HPM_P1;HPM_P2
2022/06/25 00:00:24;;;;;;;;;;;;;;;13.64;100.00;95736.00;1031175;28;20008;-66
2022/06/25 00:00:54;;;;;;;;;;;;;;;13.65;100.00;95729.66;1033252;28;19922;-66
2022/06/25 00:01:25;;;;;;;;;;;;;;;13.63;100.00;95725.72;1033292;28;20396;-66
2022/06/25 00:01:55;;;;;;;;;;;;;;;13.62;100.00;95732.09;1038907;28;19924;-67
2022/06/25 00:02:25;;;;;;;;;;;;;;;13.62;100.00;95730.22;1042589;28;19924;-66
2022/06/25 00:02:55;;;;;;;;;;;;;;;13.61;100.00;95733.91;1035122;28;20601;-67
2022/06/25 00:03:26;;;;;;;;;;;;;;;13.62;100.00;95724.19;1035077;28;20445;-67
2022/06/25 00:03:56;;;;;;;;;;;;;;;13.62;100.00;95735.50;1034969;28;19925;-64
2022/06/25 00:05:27;;;;;;;;;;;;;;;13.63;100.00;95736.28;1039331;28;20457;-68
2022/06/25 00:05:58;;;;;;;;;;;;;;;13.63;100.00;95736.28;1039097;28;19975;-66
2022/06/25 00:06:28;;;;;;;;;;;;;;;13.62;100.00;95732.09;1043476;28;19919;-66
2022/06/25 00:06:58;;;;;;;;;;;;;;;13.63;100.00;95736.28;1030821;28;19918;-65
2022/06/25 00:07:29;;;;;;;;;;;;;;;13.63;100.00;95726.50;1027702;28;19950;-68
2022/06/25 00:07:59;;;;;;;;;;;;;;;13.61;100.00;95733.13;1023002;29;19915;-67
2022/06/25 00:08:30;;;;;;;;;;;;;;;13.61;100.00;95743.69;1023198;28;20502;-67
2022/06/25 00:09:00;;;;;;;;;;;;;;;13.60;100.00;95737.63;1031096;28;19944;-66
2022/06/25 00:09:30;;;;;;;;;;;;;;;13.61;100.00;95741.03;1031250;28;20486;-67
2022/06/25 00:10:01;;;;;;;;;;;;;;;13.61;100.00;95743.69;1034936;28;20009;-67
2022/06/25 00:10:31;;;;;;;;;;;;;;;13.61;100.00;95735.75;1039052;28;19913;-66
2022/06/25 00:11:01;;;;;;;;;;;;;;;13.60;100.00;95736.84;1039453;28;19929;-66
2022/06/25 00:12:33;;;;;;;;;;;;;;;13.61;100.00;95733.13;1030086;28;20334;-66
2022/06/25 00:13:03;;;;;;;;;;;;;;;13.61;100.00;95744.47;1027003;28;19945;-66
2022/06/25 00:13:34;;;;;;;;;;;;;;;13.61;100.00;95738.41;1035209;28;19996;-67
2022/06/25 00:14:08;;;;;;;;;;;;;;;13.60;100.00;95736.84;1038877;28;19923;-66
2022/06/25 00:14:38;;;;;;;;;;;;;;;13.58;100.00;95738.97;1033170;28;19914;-65
2022/06/25 00:15:09;;;;;;;;;;;;;;;13.58;100.00;95741.59;1034986;28;19922;-67
2022/06/25 00:15:39;;;;;;;;;;;;;;;13.60;100.00;95736.84;1035151;28;19917;-67
2022/06/25 00:16:09;;;;;;;;;;;;;;;13.59;100.00;95735.28;1035240;28;20328;-65
2022/06/25 00:16:40;;;;;;;;;;;;;;;13.59;100.00;95740.56;1038853;28;20361;-67
2022/06/25 00:17:10;;;;;;;;;;;;;;;13.59;100.00;95735.28;1039289;28;19924;-69
2022/06/25 00:17:40;;;;;;;;;;;;;;;13.59;100.00;95735.28;1039214;28;19968;-65
2022/06/25 00:18:11;;;;;;;;;;;;;;;13.59;100.00;95740.56;1043662;28;19921;-65
2022/06/25 00:18:41;;;;;;;;;;;;;;;13.59;100.00;95736.06;1043291;28;19923;-67
2022/06/25 00:19:11;;;;;;;;;;;;;;;13.58;100.00;95734.50;1035106;28;19917;-66
2022/06/25 00:19:42;;;;;;;;;;;;;;;13.60;100.00;95736.84;1035119;28;19917;-65
2022/06/25 00:20:12;;;;;;;;;;;;;;;13.58;100.00;95733.69;1025194;28;19957;-68
2022/06/25 00:20:43;;;;;;;;;;;;;;;13.57;100.00;95737.41;1022727;28;19915;-66
2022/06/25 00:21:13;;;;;;;;;;;;;;;13.58;100.00;95742.41;1027056;28;19918;-66
2022/06/25 00:21:43;;;;;;;;;;;;;;;13.58;100.00;95741.59;1027057;28;19922;-65
2022/06/25 00:22:14;;;;;;;;;;;;;;;13.58;100.00;95738.97;1029498;28;19947;-64
2022/06/25 00:22:44;;;;;;;;;;;;;;;13.57;100.00;95738.19;1030679;28;19960;-68
2022/06/25 00:23:14;;;;;;;;;;;;;;;13.58;100.00;95741.59;1035194;28;19910;-66
2022/06/25 00:23:45;;;;;;;;;;;;;;;13.58;100.00;95738.97;1034884;28;19924;-68
2022/06/25 00:24:16;;;;;;;;;;;;;;;13.57;100.00;95743.44;1039371;28;19921;-68
2022/06/25 00:24:46;;;;;;;;;;;;;;;13.57;100.00;95740.81;1039436;28;19917;-65
2022/06/25 00:25:17;;;;;;;;;;;;;;;13.58;100.00;95744.25;1034857;28;19921;-64
2022/06/25 00:25:47;;;;;;;;;;;;;;;13.57;100.00;95737.41;1034681;28;20005;-67
2022/06/25 00:26:17;;;;;;;;;;;;;;;13.55;100.00;95740.34;1034858;28;19971;-68
2022/06/25 00:26:48;;;;;;;;;;;;;;;13.57;100.00;95742.69;1030912;28;20017;-66
2022/06/25 00:27:18;;;;;;;;;;;;;;;13.57;100.00;95737.41;1030492;28;19914;-68
2022/06/25 00:27:48;;;;;;;;;;;;;;;13.56;100.00;95736.63;1030686;28;20018;-66
2022/06/25 00:28:19;;;;;;;;;;;;;;;13.57;100.00;95743.44;1030903;28;19917;-65
2022/06/25 00:28:49;;;;;;;;;;;;;;;13.59;100.00;95740.56;1035011;28;19917;-67
2022/06/25 00:29:19;;;;;;;;;;;;;;;13.58;100.00;95738.97;1039117;28;20450;-66
2022/06/25 00:29:50;;;;;;;;;;;;;;;13.58;100.00;95736.31;1039448;28;19921;-66
2022/06/25 00:30:20;;;;;;;;;;;;;;;13.58;100.00;95738.97;1039526;28;19928;-66
2022/06/25 00:30:50;;;;;;;;;;;;;;;13.59;100.00;95737.91;1034779;28;19924;-67
2022/06/25 00:31:20;;;;;;;;;;;;;;;13.58;100.00;95742.41;1030945;28;19956;-67
2022/06/25 00:31:51;;;;;;;;;;;;;;;13.57;100.00;95746.09;1031107;28;19922;-66
2022/06/25 00:32:21;;;;;;;;;;;;;;;13.56;100.00;95747.16;1030160;28;19921;-68
2022/06/25 00:32:51;;;;;;;;;;;;;;;13.57;100.00;95737.41;1031102;28;19928;-66
2022/06/25 00:33:22;;;;;;;;;;;;;;;13.58;100.00;95744.25;1026813;28;19918;-66
2022/06/25 00:33:52;;;;;;;;;;;;;;;13.57;100.00;95735.53;1027086;28;19996;-67
2022/06/25 00:34:22;;;;;;;;;;;;;;;13.59;100.00;95740.56;1026863;28;20777;-67
2022/06/25 00:34:53;;;;;;;;;;;;;;;13.61;100.00;95743.69;1027241;28;20013;-66
2022/06/25 00:35:23;;;;;;;;;;;;;;;13.60;100.00;95747.38;1035028;28;19956;-65
2022/06/25 00:35:53;;;;;;;;;;;;;;;13.58;100.00;95744.25;1030941;28;19945;-65
2022/06/25 00:36:24;;;;;;;;;;;;;;;13.59;100.00;95735.28;1027012;28;19926;-66
2022/06/25 00:36:54;;;;;;;;;;;;;;;13.58;100.00;95738.97;1027080;28;20625;-65
2022/06/25 00:37:24;;;;;;;;;;;;;;;13.59;100.00;95740.56;1026845;28;19977;-66
2022/06/25 00:37:55;;;;;;;;;;;;;;;13.58;100.00;95744.25;1030756;28;19993;-67
2022/06/25 00:38:26;;;;;;;;;;;;;;;13.56;100.00;95741.13;1034984;28;19927;-67
2022/06/25 00:38:56;;;;;;;;;;;;;;;13.55;100.00;95744.81;1026948;28;19973;-64
2022/06/25 00:39:26;;;;;;;;;;;;;;;13.55;100.00;95739.56;1021914;29;19947;-67
2022/06/25 00:39:56;;;;;;;;;;;;;;;13.55;100.00;95748.25;1015486;29;19915;-66
2022/06/25 00:40:27;;;;;;;;;;;;;;;13.54;100.00;95746.66;1019168;28;19930;-67
2022/06/25 00:40:57;;;;;;;;;;;;;;;13.56;100.00;95749.03;1030656;28;19957;-67
2022/06/25 00:41:28;;;;;;;;;;;;;;;13.53;100.00;95747.72;1034988;28;20410;-66
2022/06/25 00:41:58;;;;;;;;;;;;;;;13.54;100.00;95740.59;1034072;28;19921;-65
2022/06/25 00:42:28;;;;;;;;;;;;;;;13.56;100.00;95746.38;1034861;28;19928;-66
2022/06/25 00:42:59;;;;;;;;;;;;;;;13.53;100.00;95747.72;1026682;28;19918;-68
2022/06/25 00:43:29;;;;;;;;;;;;;;;13.53;100.00;95744.31;1026793;28;19977;-66
2022/06/25 00:44:05;;;;;;;;;;;;;;;13.52;100.00;95740.13;1022767;29;19918;-67
2022/06/25 00:44:35;;;;;;;;;;;;;;;13.53;100.00;95745.09;1024467;28;21238;-67
2022/06/25 00:45:06;;;;;;;;;;;;;;;13.53;100.00;95742.44;1026729;28;19926;-66
2022/06/25 00:45:36;;;;;;;;;;;;;;;13.54;100.00;95743.22;1028248;28;19961;-63
2022/06/25 00:46:06;;;;;;;;;;;;;;;13.53;100.00;95741.66;1026827;28;19918;-66
2022/06/25 00:46:37;;;;;;;;;;;;;;;13.52;100.00;95746.16;1022775;29;20069;-64
2022/06/25 00:47:07;;;;;;;;;;;;;;;13.51;100.00;95741.16;1023015;29;19981;-68
2022/06/25 00:47:38;;;;;;;;;;;;;;;13.53;100.00;95741.66;1018748;29;19919;-65
2022/06/25 00:48:08;;;;;;;;;;;;;;;13.52;100.00;95745.38;1019058;29;19923;-65
2022/06/25 00:48:38;;;;;;;;;;;;;;;13.52;100.00;95745.38;1018172;29;20403;-66
2022/06/25 00:49:09;;;;;;;;;;;;;;;13.52;100.00;95745.38;1019098;29;19969;-66
2022/06/25 00:49:39;;;;;;;;;;;;;;;13.52;100.00;95746.16;1034224;28;19922;-68
2022/06/25 00:50:09;;;;;;;;;;;;;;;13.52;100.00;95745.38;1030772;28;19934;-67
2022/06/25 00:50:40;;;;;;;;;;;;;;;13.50;100.00;95745.66;1030399;28;19918;-67
2022/06/25 00:51:11;;;;;;;;;;;;;;;13.51;100.00;95749.84;1030930;28;20363;-66
2022/06/25 00:51:41;;;;;;;;;;;;;;;13.50;100.00;95752.78;1030933;28;20500;-68
2022/06/25 00:52:13;;;;;;;;;;;;;;;13.51;100.00;95743.78;1030440;28;19913;-66
2022/06/25 00:52:43;;;;;;;;;;;;;;;13.50;100.00;95747.50;1034938;28;19921;-66
2022/06/25 00:53:14;;;;;;;;;;;;;;;13.50;100.00;95747.50;1030935;28;19920;-63
2022/06/25 00:53:44;;;;;;;;;;;;;;;13.48;100.00;95757.53;1026823;28;19940;-66
2022/06/25 00:54:15;;;;;;;;;;;;;;;13.48;100.00;95753.06;1026681;28;19991;-66
2022/06/25 00:54:49;;;;;;;;;;;;;;;13.49;100.00;95745.94;1023035;28;20053;-67
2022/06/25 00:55:20;;;;;;;;;;;;;;;13.48;100.00;95746.97;1022203;29;19923;-66
2022/06/25 00:55:50;;;;;;;;;;;;;;;13.50;100.00;95750.91;1022885;29;20057;-66
2022/06/25 00:56:21;;;;;;;;;;;;;;;13.50;100.00;95755.41;1020680;28;19948;-65
2022/06/25 00:56:51;;;;;;;;;;;;;;;13.48;100.00;95747.78;1023095;28;20408;-66
2022/06/25 00:57:25;;;;;;;;;;;;;;;13.48;100.00;95752.25;1022742;29;19926;-67
2022/06/25 00:57:55;;;;;;;;;;;;;;;13.46;100.00;95747.28;1019274;28;19929;-67
2022/06/25 00:58:31;;;;;;;;;;;;;;;13.47;100.00;95753.34;1022756;29;19921;-67
2022/06/25 00:59:02;;;;;;;;;;;;;;;13.47;100.00;95748.84;1024345;28;20504;-67
2022/06/25 00:59:36;;;;;;;;;;;;;;;13.48;100.00;95750.44;1027821;28;19929;-64
2022/06/25 01:00:07;;;;;;;;;;;;;;;13.47;100.00;95753.34;1030627;28;19917;-66
2022/06/25 01:00:38;;;;;;;;;;;;;;;13.47;100.00;95748.84;1031439;28;19918;-66
2022/06/25 01:01:09;;;;;;;;;;;;;;;13.48;100.00;95752.25;1031534;28;19929;-65
2022/06/25 01:01:39;;;;;;;;;;;;;;;13.48;100.00;95750.44;1034707;28;20435;-68
2022/06/25 01:02:10;;;;;;;;;;;;;;;13.47;100.00;95743.56;1030175;28;19922;-65
2022/06/25 01:02:40;;;;;;;;;;;;;;;13.48;100.00;95752.25;1030613;28;19928;-67
2022/06/25 01:03:11;;;;;;;;;;;;;;;13.49;100.00;95748.56;1034407;28;19921;-67
2022/06/25 01:03:41;;;;;;;;;;;;;;;13.50;100.00;95750.91;1034838;28;19921;-66
2022/06/25 01:04:11;;;;;;;;;;;;;;;13.50;100.00;95752.78;1037379;28;19917;-66
2022/06/25 01:04:41;;;;;;;;;;;;;;;13.48;100.00;95749.63;1034684;28;19921;-67
2022/06/25 01:05:12;;;;;;;;;;;;;;;13.50;100.00;95747.50;1034968;28;20411;-66
2022/06/25 01:05:43;;;;;;;;;;;;;;;13.50;100.00;95750.13;1030735;28;20414;-64
2022/06/25 01:06:13;;;;;;;;;;;;;;;13.50;100.00;95747.50;1026991;28;19922;-67
2022/06/25 01:06:43;;;;;;;;;;;;;;;13.49;100.00;95745.94;1025394;28;19921;-65
2022/06/25 01:07:14;;;;;;;;;;;;;;;13.49;100.00;95751.22;1026794;28;20033;-67
2022/06/25 01:07:44;;;;;;;;;;;;;;;13.49;100.00;95746.72;1026828;28;20393;-65
2022/06/25 01:08:15;;;;;;;;;;;;;;;13.49;100.00;95741.44;1022871;28;20479;-67
2022/06/25 01:08:45;;;;;;;;;;;;;;;13.48;100.00;95745.16;1026378;28;19911;-66
2022/06/25 01:09:15;;;;;;;;;;;;;;;13.49;100.00;95743.31;1022894;28;19918;-66
2022/06/25 01:09:49;;;;;;;;;;;;;;;13.50;100.00;95742.22;1026963;28;19957;-68
2022/06/25 01:10:19;;;;;;;;;;;;;;;13.51;100.00;95746.44;1038792;28;19928;-67
2022/06/25 01:10:49;;;;;;;;;;;;;;;13.50;100.00;95744.88;1039141;28;19921;-66
2022/06/25 01:11:20;;;;;;;;;;;;;;;13.48;100.00;95747.78;1030785;28;19944;-66
2022/06/25 01:11:50;;;;;;;;;;;;;;;13.49;100.00;95746.72;1030827;28;20380;-67
2022/06/25 01:12:20;;;;;;;;;;;;;;;13.49;100.00;95745.94;1029838;28;20296;-66
2022/06/25 01:12:51;;;;;;;;;;;;;;;13.49;100.00;95745.94;1030683;28;19928;-66
2022/06/25 01:13:24;;;;;;;;;;;;;;;13.48;100.00;95746.97;1030633;28;19976;-66
2022/06/25 01:13:54;;;;;;;;;;;;;;;13.50;100.00;95747.50;1030725;28;19921;-66
2022/06/25 01:14:24;;;;;;;;;;;;;;;13.48;100.00;95745.16;1030880;28;19976;-67
2022/06/25 01:15:01;;;;;;;;;;;;;;;13.49;100.00;95749.34;1031017;28;20014;-66
2022/06/25 01:15:32;;;;;;;;;;;;;;;13.50;100.00;95752.78;1035856;28;19914;-66
2022/06/25 01:16:03;;;;;;;;;;;;;;;13.51;100.00;95749.06;1034689;28;20445;-65
2022/06/25 01:16:33;;;;;;;;;;;;;;;13.51;100.00;95744.56;1035147;28;19955;-68
2022/06/25 01:17:04;;;;;;;;;;;;;;;13.51;100.00;95746.44;1031502;28;20796;-65
2022/06/25 01:17:38;;;;;;;;;;;;;;;13.50;100.00;95750.13;1027882;28;19969;-66
2022/06/25 01:18:08;;;;;;;;;;;;;;;13.48;100.00;95744.34;1031618;28;19956;-66
2022/06/25 01:18:39;;;;;;;;;;;;;;;13.49;100.00;95743.31;1027490;28;19969;-67
2022/06/25 01:19:09;;;;;;;;;;;;;;;13.50;100.00;95750.13;1030007;28;19923;-66
2022/06/25 01:19:40;;;;;;;;;;;;;;;13.48;100.00;95746.97;1031513;28;19918;-66
2022/06/25 01:20:10;;;;;;;;;;;;;;;13.48;100.00;95747.78;1031614;28;19929;-67
2022/06/25 01:20:42;;;;;;;;;;;;;;;13.48;100.00;95750.44;1031270;28;19921;-66
2022/06/25 01:21:13;;;;;;;;;;;;;;;13.47;100.00;95743.56;1031739;28;19922;-66
2022/06/25 01:21:44;;;;;;;;;;;;;;;13.47;100.00;95748.06;1035490;28;20367;-66
2022/06/25 01:22:15;;;;;;;;;;;;;;;13.49;100.00;95751.22;1035374;28;19916;-67
2022/06/25 01:22:45;;;;;;;;;;;;;;;13.48;100.00;95753.06;1039965;28;20549;-68
2022/06/25 01:23:15;;;;;;;;;;;;;;;13.47;100.00;95748.06;1027188;28;19946;-67
2022/06/25 01:23:46;;;;;;;;;;;;;;;13.48;100.00;95749.63;1027662;28;19918;-66
2022/06/25 01:24:16;;;;;;;;;;;;;;;13.49;100.00;95752.00;1023415;29;19938;-64
2022/06/25 01:24:47;;;;;;;;;;;;;;;13.49;100.00;95751.22;1023736;28;19989;-68
2022/06/25 01:25:17;;;;;;;;;;;;;;;13.48;100.00;95747.78;1035392;28;20350;-65
2022/06/25 01:25:48;;;;;;;;;;;;;;;13.49;100.00;95744.09;1035774;28;19964;-65
2022/06/25 01:26:18;;;;;;;;;;;;;;;13.51;100.00;95754.34;1039792;28;20509;-67
2022/06/25 01:26:48;;;;;;;;;;;;;;;13.51;100.00;95754.34;1039702;28;19920;-67
2022/06/25 01:27:19;;;;;;;;;;;;;;;13.49;100.00;95745.94;1039520;28;19940;-65
2022/06/25 01:27:49;;;;;;;;;;;;;;;13.48;100.00;95747.78;1031462;28;19913;-67
2022/06/25 01:28:19;;;;;;;;;;;;;;;13.48;100.00;95752.25;1027485;28;20025;-66
2022/06/25 01:28:49;;;;;;;;;;;;;;;13.47;100.00;95753.34;1023588;28;19926;-65
2022/06/25 01:29:20;;;;;;;;;;;;;;;13.46;100.00;95749.91;1023362;28;20152;-66
2022/06/25 01:29:50;;;;;;;;;;;;;;;13.47;100.00;95753.34;1031708;28;20518;-67
2022/06/25 01:30:20;;;;;;;;;;;;;;;13.47;100.00;95748.84;1031453;28;19914;-67
2022/06/25 01:30:51;;;;;;;;;;;;;;;13.48;100.00;95760.16;1035572;28;19924;-66
2022/06/25 01:31:21;;;;;;;;;;;;;;;13.47;100.00;95753.34;1031357;28;19918;-68
2022/06/25 01:31:52;;;;;;;;;;;;;;;13.46;100.00;95749.91;1031717;28;19918;-67
2022/06/25 01:32:22;;;;;;;;;;;;;;;13.48;100.00;95753.06;1026731;28;19911;-66
2022/06/25 01:32:52;;;;;;;;;;;;;;;13.50;100.00;95752.78;1027426;28;19932;-67
2022/06/25 01:33:23;;;;;;;;;;;;;;;13.49;100.00;95756.47;1027253;28;19918;-65
2022/06/25 01:33:53;;;;;;;;;;;;;;;13.47;100.00;95753.34;1027548;28;19922;-67
2022/06/25 01:34:23;;;;;;;;;;;;;;;13.47;100.00;95755.97;1035465;28;20319;-67
2022/06/25 01:34:54;;;;;;;;;;;;;;;13.47;100.00;95758.59;1031611;28;19926;-68
2022/06/25 01:35:24;;;;;;;;;;;;;;;13.47;100.00;95758.59;1035483;28;19988;-68
2022/06/25 01:35:54;;;;;;;;;;;;;;;13.47;100.00;95753.34;1035459;28;19976;-66
2022/06/25 01:36:25;;;;;;;;;;;;;;;13.48;100.00;95760.16;1033077;28;19968;-67
2022/06/25 01:36:55;;;;;;;;;;;;;;;13.49;100.00;95751.22;1029339;28;19952;-67
2022/06/25 01:37:25;;;;;;;;;;;;;;;13.48;100.00;95754.88;1021245;29;19926;-67
2022/06/25 01:37:56;;;;;;;;;;;;;;;13.49;100.00;95756.47;1018878;29;19919;-64
2022/06/25 01:38:26;;;;;;;;;;;;;;;13.46;100.00;95751.78;1019350;29;19977;-66
2022/06/25 01:38:56;;;;;;;;;;;;;;;13.48;100.00;95757.53;1019503;28;19929;-65
2022/06/25 01:39:26;;;;;;;;;;;;;;;13.51;100.00;95759.59;1027512;28;19926;-66
2022/06/25 01:39:57;;;;;;;;;;;;;;;13.50;100.00;95752.78;1034852;28;19920;-67
2022/06/25 01:40:27;;;;;;;;;;;;;;;13.50;100.00;95748.28;1037620;28;19925;-66
2022/06/25 01:40:57;;;;;;;;;;;;;;;13.49;100.00;95751.22;1034201;28;20403;-66
2022/06/25 01:41:28;;;;;;;;;;;;;;;13.48;100.00;95749.63;1026975;28;19911;-65
2022/06/25 01:41:58;;;;;;;;;;;;;;;13.51;100.00;95749.84;1025535;28;19934;-64
2022/06/25 01:43:17;;;;;;;;;;;;;;;13.46;100.00;95747.28;1027628;28;19918;-68
2022/06/25 01:43:47;;;;;;;;;;;;;;;13.48;100.00;95754.88;1031459;28;19918;-66
2022/06/25 01:44:18;;;;;;;;;;;;;;;13.47;100.00;95750.69;1033931;28;19941;-65
2022/06/25 01:44:48;;;;;;;;;;;;;;;13.48;100.00;95752.25;1033983;28;19949;-66
2022/06/25 01:45:18;;;;;;;;;;;;;;;13.47;100.00;95754.13;1026012;28;20308;-63
2022/06/25 01:45:49;;;;;;;;;;;;;;;13.47;100.00;95751.47;1028807;28;19921;-63
2022/06/25 01:46:19;;;;;;;;;;;;;;;13.45;100.00;95751.00;1025385;28;19914;-66
2022/06/25 01:46:49;;;;;;;;;;;;;;;13.46;100.00;95743.88;1030638;28;20434;-66
2022/06/25 01:47:20;;;;;;;;;;;;;;;13.47;100.00;95754.13;1031030;28;19926;-66
2022/06/25 01:47:50;;;;;;;;;;;;;;;13.50;100.00;95750.13;1033384;28;19992;-65
2022/06/25 01:48:21;;;;;;;;;;;;;;;13.47;100.00;95748.84;1025420;28;19926;-64
2022/06/25 01:48:51;;;;;;;;;;;;;;;13.48;100.00;95746.97;1025173;28;19937;-65
2022/06/25 01:49:22;;;;;;;;;;;;;;;13.47;100.00;95748.84;1022298;28;19957;-68
2022/06/25 01:49:52;;;;;;;;;;;;;;;13.48;100.00;95754.88;1021176;28;20021;-66
2022/06/25 01:50:22;;;;;;;;;;;;;;;13.47;100.00;95751.47;1029567;28;19924;-64
2022/06/25 01:50:53;;;;;;;;;;;;;;;13.47;100.00;95755.97;1035544;28;19913;-65
2022/06/25 01:51:23;;;;;;;;;;;;;;;13.47;100.00;95754.13;1034082;28;19914;-67
2022/06/25 01:51:53;;;;;;;;;;;;;;;13.49;100.00;95756.47;1031456;28;19917;-65
2022/06/25 01:52:24;;;;;;;;;;;;;;;13.49;100.00;95756.47;1026532;28;20635;-66
2022/06/25 01:52:54;;;;;;;;;;;;;;;13.50;100.00;95755.41;1023303;28;20017;-67
2022/06/25 01:53:25;;;;;;;;;;;;;;;13.50;100.00;95758.03;1023285;29;20376;-64
2022/06/25 01:53:55;;;;;;;;;;;;;;;13.46;100.00;95757.81;1023440;28;19960;-67
2022/06/25 01:54:25;;;;;;;;;;;;;;;13.47;100.00;95763.88;1026035;28;20380;-67
2022/06/25 01:54:56;;;;;;;;;;;;;;;13.48;100.00;95760.16;1023378;28;19915;-66
2022/06/25 01:55:26;;;;;;;;;;;;;;;13.47;100.00;95759.38;1025323;28;19911;-66
2022/06/25 01:55:56;;;;;;;;;;;;;;;13.49;100.00;95761.75;1027530;28;19922;-65
2022/06/25 01:56:27;;;;;;;;;;;;;;;13.48;100.00;95754.88;1027271;28;20427;-65
2022/06/25 01:56:57;;;;;;;;;;;;;;;13.47;100.00;95763.88;1019165;29;19943;-65
2022/06/25 01:57:28;;;;;;;;;;;;;;;13.47;100.00;95758.59;1017334;29;19922;-65
2022/06/25 01:57:58;;;;;;;;;;;;;;;13.47;100.00;95758.59;1020550;29;19990;-65
2022/06/25 01:58:29;;;;;;;;;;;;;;;13.47;100.00;95758.59;1019645;29;20436;-65
2022/06/25 01:58:59;;;;;;;;;;;;;;;13.47;100.00;95758.59;1018976;29;19990;-66
2022/06/25 01:59:29;;;;;;;;;;;;;;;13.48;100.00;95763.63;1021665;29;20055;-65
2022/06/25 02:00:00;;;;;;;;;;;;;;;13.51;100.00;95762.25;1024913;28;19915;-65
2022/06/25 02:00:30;;;;;;;;;;;;;;;13.47;100.00;95759.38;1021483;29;19907;-65
2022/06/25 02:01:01;;;;;;;;;;;;;;;13.49;100.00;95767.03;1019590;29;19970;-64
2022/06/25 02:01:32;;;;;;;;;;;;;;;13.49;100.00;95762.53;1019508;29;20501;-64
2022/06/25 02:02:02;;;;;;;;;;;;;;;13.47;100.00;95756.75;1022535;28;19970;-64
2022/06/25 02:02:33;;;;;;;;;;;;;;;13.49;100.00;95759.91;1019473;29;20423;-64
2022/06/25 02:03:03;;;;;;;;;;;;;;;13.49;100.00;95761.75;1023300;28;19919;-65
2022/06/25 02:03:34;;;;;;;;;;;;;;;13.49;100.00;95757.25;1023819;28;21160;-64
2022/06/25 02:04:04;;;;;;;;;;;;;;;13.49;100.00;95764.41;1026163;28;19914;-64
2022/06/25 02:04:34;;;;;;;;;;;;;;;13.47;100.00;95758.59;1022456;28;19926;-64
2022/06/25 02:05:05;;;;;;;;;;;;;;;13.47;100.00;95754.13;1021249;29;20262;-65
2022/06/25 02:06:25;;;;;;;;;;;;;;;13.48;100.00;95760.97;1015892;29;19919;-64
2022/06/25 02:06:55;;;;;;;;;;;;;;;13.48;100.00;95760.16;1019368;29;19922;-65
2022/06/25 02:07:26;;;;;;;;;;;;;;;13.48;100.00;95760.16;1023490;29;20483;-64
2022/06/25 02:07:56;;;;;;;;;;;;;;;13.49;100.00;95764.41;1023544;29;20009;-65
2022/06/25 02:08:27;;;;;;;;;;;;;;;13.51;100.00;95765.66;1023673;28;20414;-64
2022/06/25 02:08:58;;;;;;;;;;;;;;;13.53;100.00;95760.13;1027298;28;20312;-65
2022/06/25 02:09:28;;;;;;;;;;;;;;;13.52;100.00;95758.56;1027649;28;20009;-65
2022/06/25 02:09:59;;;;;;;;;;;;;;;13.52;100.00;95761.97;1030415;28;19921;-64
2022/06/25 02:10:29;;;;;;;;;;;;;;;13.49;100.00;95761.75;1031452;28;19929;-65
2022/06/25 02:11:00;;;;;;;;;;;;;;;13.48;100.00;95765.44;1023436;28;19922;-64
2022/06/25 02:11:30;;;;;;;;;;;;;;;13.48;100.00;95762.81;1021805;29;19958;-64
2022/06/25 02:12:01;;;;;;;;;;;;;;;13.49;100.00;95764.41;1019464;29;19925;-64
2022/06/25 02:12:31;;;;;;;;;;;;;;;13.47;100.00;95764.66;1027403;28;19918;-65
2022/06/25 02:13:02;;;;;;;;;;;;;;;13.47;100.00;95767.28;1031302;28;19921;-63
2022/06/25 02:13:32;;;;;;;;;;;;;;;13.49;100.00;95761.75;1023498;28;19918;-64
2022/06/25 02:14:03;;;;;;;;;;;;;;;13.49;100.00;95767.81;1027215;28;19918;-64
2022/06/25 02:14:33;;;;;;;;;;;;;;;13.49;100.00;95764.41;1027490;28;20044;-64
2022/06/25 02:15:05;;;;;;;;;;;;;;;13.48;100.00;95760.16;1023144;29;20048;-64
2022/06/25 02:15:35;;;;;;;;;;;;;;;13.49;100.00;95764.41;1019570;29;20006;-64
2022/06/25 02:16:05;;;;;;;;;;;;;;;13.49;100.00;95761.75;1027820;28;20271;-65
2022/06/25 02:16:36;;;;;;;;;;;;;;;13.49;100.00;95764.41;1019453;29;20448;-64
2022/06/25 02:17:06;;;;;;;;;;;;;;;13.50;100.00;95765.97;1027558;28;19918;-65
2022/06/25 02:17:37;;;;;;;;;;;;;;;13.50;100.00;95765.97;1027163;28;20407;-64
2022/06/25 02:18:08;;;;;;;;;;;;;;;13.50;100.00;95760.69;1023679;29;20017;-64
2022/06/25 02:18:38;;;;;;;;;;;;;;;13.48;100.00;95768.88;1018839;29;19919;-63
2022/06/25 02:19:09;;;;;;;;;;;;;;;13.48;100.00;95768.88;1015702;29;19920;-63
2022/06/25 02:19:39;;;;;;;;;;;;;;;13.49;100.00;95767.03;1024821;28;19922;-65
2022/06/25 02:20:10;;;;;;;;;;;;;;;13.48;100.00;95770.72;1025963;28;19957;-64
2022/06/25 02:20:40;;;;;;;;;;;;;;;13.48;100.00;95760.97;1019347;29;19929;-65
2022/06/25 02:21:11;;;;;;;;;;;;;;;13.46;100.00;95772.84;1019744;29;19979;-64
2022/06/25 02:21:41;;;;;;;;;;;;;;;13.47;100.00;95769.94;1022860;29;19944;-64
2022/06/25 02:22:14;;;;;;;;;;;;;;;13.46;100.00;95768.38;1021213;28;19954;-65
2022/06/25 02:22:45;;;;;;;;;;;;;;;13.48;100.00;95768.06;1024479;28;19997;-65
2022/06/25 02:23:15;;;;;;;;;;;;;;;13.50;100.00;95774.66;1023629;28;19923;-64
2022/06/25 02:23:46;;;;;;;;;;;;;;;13.51;100.00;95770.16;1020359;28;20082;-63
2022/06/25 02:24:16;;;;;;;;;;;;;;;13.50;100.00;95768.59;1027063;28;20190;-63
2022/06/25 02:24:46;;;;;;;;;;;;;;;13.49;100.00;95765.16;1023702;29;19922;-65
2022/06/25 02:25:17;;;;;;;;;;;;;;;13.50;100.00;95763.31;1023539;29;20288;-64
2022/06/25 02:25:47;;;;;;;;;;;;;;;13.48;100.00;95771.53;1023459;28;20053;-64
2022/06/25 02:26:18;;;;;;;;;;;;;;;13.44;100.00;95766.00;1019596;28;19930;-64
2022/06/25 02:26:48;;;;;;;;;;;;;;;13.47;100.00;95774.41;1027648;28;19949;-64
2022/06/25 02:27:18;;;;;;;;;;;;;;;13.48;100.00;95773.34;1023128;28;19918;-64
2022/06/25 02:27:49;;;;;;;;;;;;;;;13.48;100.00;95770.72;1025069;28;19918;-64
2022/06/25 02:28:19;;;;;;;;;;;;;;;13.49;100.00;95767.81;1026704;28;19922;-64
2022/06/25 02:28:49;;;;;;;;;;;;;;;13.48;100.00;95770.72;1027458;28;19922;-63
2022/06/25 02:29:20;;;;;;;;;;;;;;;13.47;100.00;95769.16;1027160;28;19922;-64
2022/06/25 02:29:50;;;;;;;;;;;;;;;13.47;100.00;95766.50;1023454;29;20392;-64
2022/06/25 02:30:21;;;;;;;;;;;;;;;13.47;100.00;95766.50;1023421;29;19918;-65
2022/06/25 02:30:51;;;;;;;;;;;;;;;13.45;100.00;95772.06;1021941;28;20340;-64
2022/06/25 02:31:21;;;;;;;;;;;;;;;13.46;100.00;95772.84;1027326;28;19918;-64
2022/06/25 02:31:51;;;;;;;;;;;;;;;13.46;100.00;95770.22;1027101;28;19925;-65
2022/06/25 02:32:22;;;;;;;;;;;;;;;13.48;100.00;95775.97;1026693;28;19918;-65
2022/06/25 02:32:52;;;;;;;;;;;;;;;13.46;100.00;95765.72;1023483;29;20425;-64
2022/06/25 02:33:23;;;;;;;;;;;;;;;13.46;100.00;95770.22;1023340;28;20458;-65
2022/06/25 02:33:53;;;;;;;;;;;;;;;13.44;100.00;95775.75;1023168;29;19951;-64
2022/06/25 02:34:24;;;;;;;;;;;;;;;13.44;100.00;95773.91;1019517;29;19922;-63
2022/06/25 02:34:54;;;;;;;;;;;;;;;13.42;100.00;95773.41;1019114;29;19926;-64
2022/06/25 02:35:24;;;;;;;;;;;;;;;13.42;100.00;95777.91;1023352;29;20307;-66
2022/06/25 02:35:55;;;;;;;;;;;;;;;13.43;100.00;95774.97;1022012;29;19934;-64
2022/06/25 02:36:25;;;;;;;;;;;;;;;13.43;100.00;95774.19;1023466;28;20378;-65
2022/06/25 02:36:55;;;;;;;;;;;;;;;13.42;100.00;95778.69;1023433;29;19918;-65
2022/06/25 02:37:26;;;;;;;;;;;;;;;13.42;100.00;95772.63;1027618;28;19992;-63
2022/06/25 02:37:56;;;;;;;;;;;;;;;13.44;100.00;95779.19;1023456;28;19919;-64
2022/06/25 02:38:28;;;;;;;;;;;;;;;13.40;100.00;95775.53;1027577;28;19918;-65
2022/06/25 02:38:58;;;;;;;;;;;;;;;13.40;100.00;95774.75;1019311;29;19927;-63
2022/06/25 02:39:28;;;;;;;;;;;;;;;13.41;100.00;95778.94;1027465;28;20643;-64
2022/06/25 02:39:59;;;;;;;;;;;;;;;13.39;100.00;95779.25;1027375;28;20366;-66
2022/06/25 02:40:29;;;;;;;;;;;;;;;13.39;100.00;95779.25;1027122;28;19925;-65